Time;durP1;ratioP1;P1;durP2;ratioP2;P2;SDS_P1;SDS_P2;PMS_P1;PMS_P2;Temp;Humidity;BMP_temperature;BMP_pressure;BME280_temperature;BME280_humidity;BME280_pressure;Samples;Min_cycle;Max_cycle;Signal;HPM_P1;HPM_P2
2021/01/11 00:01:24;;;;;;;0.20;0.20;;;-1.10;99.90;;;;;;5015475;28;20268;-79
2021/01/11 00:03:49;;;;;;;0.30;0.30;;;-1.10;99.90;;;;;;5011963;28;20776;-79
2021/01/11 00:06:15;;;;;;;0.37;0.37;;;-1.00;99.90;;;;;;5012774;28;20310;-78
2021/01/11 00:08:40;;;;;;;0.77;0.77;;;-1.00;99.90;;;;;;5011692;28;20298;-79
2021/01/11 00:11:06;;;;;;;0.60;0.60;;;-1.00;99.90;;;;;;5017849;28;20284;-80
2021/01/11 00:13:32;;;;;;;1.13;0.20;;;-1.00;99.90;;;;;;5018161;28;20666;-79
2021/01/11 00:15:58;;;;;;;0.57;0.20;;;-1.00;99.90;;;;;;5017456;28;20194;-79
2021/01/11 00:18:23;;;;;;;0.40;0.33;;;-0.90;99.90;;;;;;5018688;28;20634;-78
2021/01/11 00:20:49;;;;;;;0.33;0.33;;;-0.90;99.90;;;;;;5012310;28;20225;-80
2021/01/11 00:23:14;;;;;;;0.27;0.27;;;-1.00;99.90;;;;;;5015717;28;20209;-79
2021/01/11 00:25:40;;;;;;;0.20;0.20;;;-1.00;99.90;;;;;;5013675;28;20574;-79
2021/01/11 00:28:05;;;;;;;0.30;0.30;;;-1.10;99.90;;;;;;5017739;28;20233;-78
2021/01/11 00:30:31;;;;;;;0.43;0.43;;;-1.00;99.90;;;;;;5019136;28;20200;-79
2021/01/11 00:32:56;;;;;;;0.10;0.10;;;-1.00;99.90;;;;;;5019509;28;20198;-79
2021/01/11 00:35:22;;;;;;;0.50;0.27;;;-1.00;99.90;;;;;;5019923;28;20178;-79
2021/01/11 00:37:47;;;;;;;0.17;0.17;;;-1.10;99.90;;;;;;5022072;28;20200;-82
2021/01/11 00:40:13;;;;;;;0.10;0.10;;;-1.10;99.90;;;;;;5016867;28;20215;-77
2021/01/11 00:42:39;;;;;;;0.40;0.40;;;-1.10;99.90;;;;;;5018347;28;20186;-79
2021/01/11 00:45:07;;;;;;;0.80;0.70;;;-1.10;99.90;;;;;;5011647;28;20239;-79
2021/01/11 00:47:42;;;;;;;1.77;0.80;;;-1.10;99.90;;;;;;5018883;28;20183;-79
2021/01/11 00:50:09;;;;;;;0.30;0.30;;;-1.20;99.90;;;;;;5011569;28;20290;-78
2021/01/11 00:52:36;;;;;;;0.13;0.13;;;-1.20;99.90;;;;;;5010757;28;20217;-79
2021/01/11 00:55:06;;;;;;;1.07;0.30;;;-1.20;99.90;;;;;;5011462;28;20234;-78
2021/01/11 00:57:32;;;;;;;0.70;0.70;;;-1.20;99.90;;;;;;5015168;28;20228;-79
2021/01/11 00:59:57;;;;;;;0.57;0.57;;;-1.20;99.90;;;;;;5020983;28;20288;-78
2021/01/11 01:02:23;;;;;;;0.40;0.40;;;-1.20;99.90;;;;;;5010943;28;20186;-79
2021/01/11 01:04:49;;;;;;;0.10;0.10;;;-1.20;99.90;;;;;;5018099;28;20211;-78
2021/01/11 01:07:14;;;;;;;0.37;0.37;;;-1.20;99.90;;;;;;5011648;28;20690;-79
2021/01/11 01:09:40;;;;;;;0.30;0.30;;;-1.30;99.90;;;;;;5017341;28;20694;-78
2021/01/11 01:12:06;;;;;;;0.10;0.10;;;-1.40;99.90;;;;;;5010671;28;20274;-78
2021/01/11 01:14:31;;;;;;;0.73;0.73;;;-1.40;99.90;;;;;;5015615;28;20206;-79
2021/01/11 01:16:57;;;;;;;0.20;0.20;;;-1.40;99.90;;;;;;5012761;28;20208;-79
2021/01/11 01:19:22;;;;;;;0.20;0.20;;;-1.40;99.90;;;;;;5010171;28;20584;-79
2021/01/11 01:21:48;;;;;;;0.20;0.20;;;-1.40;99.90;;;;;;5005433;28;20567;-79
2021/01/11 01:24:13;;;;;;;0.70;0.70;;;-1.30;99.90;;;;;;5012652;28;20206;-79
2021/01/11 01:26:39;;;;;;;0.50;0.50;;;-1.30;99.90;;;;;;5010293;28;20186;-79
2021/01/11 01:29:04;;;;;;;1.80;1.70;;;-1.30;99.90;;;;;;5016676;28;20235;-79
2021/01/11 01:31:30;;;;;;;0.30;0.30;;;-1.50;99.90;;;;;;5011438;28;20192;-78
2021/01/11 01:33:55;;;;;;;0.77;0.33;;;-1.50;99.90;;;;;;5011933;28;20179;-79
2021/01/11 01:36:21;;;;;;;0.20;0.20;;;-1.50;99.90;;;;;;5011245;28;20600;-78
2021/01/11 01:38:47;;;;;;;0.30;0.30;;;-1.40;99.90;;;;;;5017214;28;20180;-79
2021/01/11 01:41:13;;;;;;;0.10;0.10;;;-1.40;99.90;;;;;;5015395;28;20216;-79
2021/01/11 01:43:39;;;;;;;0.30;0.30;;;-1.40;99.90;;;;;;5012580;28;20766;-79
2021/01/11 01:46:07;;;;;;;0.20;0.20;;;-1.40;99.90;;;;;;5014878;28;20221;-79
2021/01/11 01:48:34;;;;;;;0.30;0.30;;;-1.30;99.90;;;;;;5009902;28;20563;-78
2021/01/11 01:50:59;;;;;;;0.53;0.40;;;-1.20;99.90;;;;;;5010608;28;20199;-77
2021/01/11 01:53:25;;;;;;;0.50;0.27;;;-1.20;99.90;;;;;;5010208;28;20713;-79
2021/01/11 01:55:53;;;;;;;0.30;0.30;;;-1.20;99.90;;;;;;5012129;28;20187;-79
2021/01/11 01:58:20;;;;;;;0.63;0.63;;;-1.30;99.90;;;;;;5014985;28;20183;-78
2021/01/11 02:00:46;;;;;;;0.40;0.40;;;-1.30;99.90;;;;;;5008342;28;20206;-79
2021/01/11 02:03:12;;;;;;;1.50;0.60;;;-1.40;99.90;;;;;;4999368;28;20191;-79
2021/01/11 02:05:38;;;;;;;0.33;0.33;;;-1.30;99.90;;;;;;5022609;28;20300;-79
2021/01/11 02:08:19;;;;;;;0.93;0.93;;;-1.40;99.90;;;;;;5009956;28;20270;-77
2021/01/11 02:10:55;;;;;;;0.30;0.30;;;-1.40;99.90;;;;;;5011304;28;20289;-77
2021/01/11 02:13:20;;;;;;;0.40;0.40;;;-1.40;99.90;;;;;;5009394;28;20195;-79
2021/01/11 02:15:58;;;;;;;1.03;0.87;;;-1.40;99.90;;;;;;5010867;28;20191;-79
2021/01/11 02:18:37;;;;;;;0.60;0.60;;;-1.40;99.90;;;;;;5012667;28;20574;-78
2021/01/11 02:21:48;;;;;;;0.17;0.17;;;-1.40;99.90;;;;;;5006656;28;20246;-78
2021/01/11 02:24:44;;;;;;;0.30;0.30;;;-1.50;99.90;;;;;;4990531;28;20215;-79
2021/01/11 02:27:16;;;;;;;0.20;0.20;;;-1.50;99.90;;;;;;5013956;28;20181;-79
2021/01/11 02:30:06;;;;;;;0.70;0.40;;;-1.50;99.90;;;;;;5010452;28;20201;-79
2021/01/11 02:32:32;;;;;;;0.47;0.47;;;-1.60;99.90;;;;;;5016509;28;20180;-80
2021/01/11 02:35:02;;;;;;;0.10;0.10;;;-1.60;99.90;;;;;;5013594;28;20186;-80
2021/01/11 02:37:29;;;;;;;0.17;0.17;;;-1.60;99.90;;;;;;5015535;28;20190;-78
2021/01/11 02:39:55;;;;;;;1.60;1.50;;;-1.60;99.90;;;;;;5013330;28;20221;-77
2021/01/11 02:42:20;;;;;;;0.83;0.63;;;-1.60;99.90;;;;;;5012106;28;20543;-79
2021/01/11 02:44:48;;;;;;;0.30;0.30;;;-1.70;99.90;;;;;;5011690;28;20269;-82
2021/01/11 02:47:19;;;;;;;0.17;0.17;;;-1.70;99.90;;;;;;5016262;28;20240;-78
2021/01/11 02:49:52;;;;;;;2.23;0.50;;;-1.70;99.90;;;;;;5008662;28;20269;-78
2021/01/11 02:52:29;;;;;;;3.50;0.50;;;-1.70;99.90;;;;;;5011389;28;20183;-79
2021/01/11 02:55:03;;;;;;;0.53;0.53;;;-1.70;99.90;;;;;;5022940;28;20670;-81
2021/01/11 02:58:05;;;;;;;0.63;0.53;;;-1.70;99.90;;;;;;5015331;28;20206;-79
2021/01/11 03:00:36;;;;;;;0.27;0.27;;;-1.80;99.90;;;;;;5018626;28;20307;-78
2021/01/11 03:03:05;;;;;;;0.20;0.20;;;-1.80;99.90;;;;;;5014978;28;20647;-81
2021/01/11 03:05:31;;;;;;;0.30;0.30;;;-1.90;99.90;;;;;;5013951;28;20211;-79
2021/01/11 03:07:57;;;;;;;1.13;0.37;;;-1.90;99.90;;;;;;5013327;28;20197;-77
2021/01/11 03:10:23;;;;;;;1.00;1.00;;;-1.90;99.90;;;;;;5020921;28;20610;-77
2021/01/11 03:12:49;;;;;;;0.67;0.67;;;-1.90;99.90;;;;;;5014697;28;20187;-77
2021/01/11 03:15:16;;;;;;;0.77;0.77;;;-1.80;99.90;;;;;;5013470;28;20660;-79
2021/01/11 03:17:42;;;;;;;0.43;0.43;;;-1.80;99.90;;;;;;5015773;28;20278;-81
2021/01/11 03:20:10;;;;;;;0.43;0.43;;;-1.80;99.90;;;;;;5011864;28;20796;-79
2021/01/11 03:22:35;;;;;;;0.50;0.50;;;-1.80;99.90;;;;;;5010936;28;20726;-79
2021/01/11 03:25:01;;;;;;;0.30;0.30;;;-1.80;99.90;;;;;;5012339;28;20202;-82
2021/01/11 03:27:27;;;;;;;1.07;1.07;;;-1.80;99.90;;;;;;5012605;28;20197;-81
2021/01/11 03:29:52;;;;;;;0.77;0.47;;;-1.80;99.90;;;;;;5011937;28;20276;-79
2021/01/11 03:32:18;;;;;;;1.30;0.67;;;-1.80;99.90;;;;;;5029211;28;20182;-80
2021/01/11 03:34:43;;;;;;;1.17;1.07;;;-1.90;99.90;;;;;;5018643;28;20186;-81
2021/01/11 03:37:09;;;;;;;0.80;0.80;;;-1.90;99.90;;;;;;5022239;28;20692;-81
2021/01/11 03:39:35;;;;;;;0.40;0.40;;;-1.90;99.90;;;;;;5022214;28;20240;-81
2021/01/11 03:42:00;;;;;;;0.30;0.30;;;-2.00;99.90;;;;;;5019981;28;20206;-81
2021/01/11 03:44:26;;;;;;;0.17;0.17;;;-2.00;99.90;;;;;;5020607;28;20210;-80
2021/01/11 03:46:51;;;;;;;0.30;0.30;;;-2.00;99.90;;;;;;5022719;28;20190;-81
2021/01/11 03:49:17;;;;;;;0.30;0.30;;;-2.10;99.90;;;;;;5025052;28;20205;-81
2021/01/11 03:51:42;;;;;;;2.63;0.77;;;-2.10;99.90;;;;;;5011553;28;20691;-81
2021/01/11 03:54:08;;;;;;;0.20;0.20;;;-2.00;99.90;;;;;;5016075;28;20192;-81
2021/01/11 03:56:34;;;;;;;0.87;0.40;;;-2.10;99.90;;;;;;5015863;28;20220;-79
2021/01/11 03:59:00;;;;;;;0.40;0.40;;;-2.00;99.90;;;;;;5018299;28;20187;-80
2021/01/11 04:01:27;;;;;;;0.83;0.20;;;-2.00;99.90;;;;;;5006044;28;20176;-80
2021/01/11 04:03:53;;;;;;;0.20;0.20;;;-1.90;99.90;;;;;;5020046;28;20214;-81
2021/01/11 04:06:20;;;;;;;0.30;0.30;;;-1.90;99.90;;;;;;5011290;28;20287;-80
2021/01/11 04:08:46;;;;;;;0.10;0.10;;;-1.90;99.90;;;;;;5017019;28;20195;-81
2021/01/11 04:11:12;;;;;;;0.40;0.40;;;-1.90;99.90;;;;;;5010973;28;20714;-80
2021/01/11 04:13:38;;;;;;;0.67;0.67;;;-1.90;99.90;;;;;;5015691;28;20193;-81
2021/01/11 04:16:03;;;;;;;1.63;1.40;;;-1.90;99.90;;;;;;5011421;28;20193;-81
2021/01/11 04:18:29;;;;;;;0.40;0.40;;;-2.00;99.90;;;;;;5012481;28;20274;-79
2021/01/11 04:20:55;;;;;;;0.10;0.10;;;-2.00;99.90;;;;;;5014362;28;20211;-81
2021/01/11 04:23:20;;;;;;;1.07;0.97;;;-2.10;99.90;;;;;;5011487;28;20670;-82
2021/01/11 04:25:46;;;;;;;1.30;0.40;;;-2.10;99.90;;;;;;5010524;28;20207;-83
2021/01/11 04:28:11;;;;;;;0.30;0.30;;;-2.10;99.90;;;;;;5010857;28;20185;-81
2021/01/11 04:30:37;;;;;;;0.10;0.10;;;-2.10;99.90;;;;;;5013458;28;20202;-81
2021/01/11 04:33:02;;;;;;;0.37;0.37;;;-2.10;99.90;;;;;;5028154;28;20654;-81
2021/01/11 04:35:29;;;;;;;0.70;0.70;;;-2.20;99.90;;;;;;5011576;28;20190;-79
2021/01/11 04:37:55;;;;;;;0.10;0.10;;;-2.20;99.90;;;;;;5013190;28;21818;-80
2021/01/11 04:40:21;;;;;;;0.37;0.37;;;-2.30;99.90;;;;;;5013653;28;20593;-80
2021/01/11 04:42:47;;;;;;;0.77;0.47;;;-2.30;99.90;;;;;;5014597;28;20195;-81
2021/01/11 04:45:17;;;;;;;0.27;0.27;;;-2.40;99.90;;;;;;5010893;28;20826;-81
2021/01/11 04:47:43;;;;;;;0.60;0.60;;;-2.40;99.90;;;;;;5012794;28;20175;-80
2021/01/11 04:50:10;;;;;;;0.27;0.27;;;-2.40;99.90;;;;;;5010353;28;20755;-81
2021/01/11 04:52:38;;;;;;;0.70;0.70;;;-2.30;99.90;;;;;;5014356;28;20187;-81
2021/01/11 04:55:06;;;;;;;1.50;0.40;;;-2.40;99.90;;;;;;5015685;28;20601;-77
2021/01/11 04:57:35;;;;;;;1.37;0.87;;;-2.40;99.90;;;;;;5010470;28;20187;-81
2021/01/11 05:00:05;;;;;;;0.27;0.27;;;-2.50;99.90;;;;;;4996445;28;20234;-81
2021/01/11 05:02:32;;;;;;;0.10;0.10;;;-2.50;99.90;;;;;;5004317;28;20188;-81
2021/01/11 05:04:58;;;;;;;0.33;0.33;;;-2.60;99.90;;;;;;5010024;28;20766;-81
2021/01/11 05:07:29;;;;;;;0.40;0.33;;;-2.60;99.90;;;;;;5007441;28;20272;-80
2021/01/11 05:09:55;;;;;;;0.20;0.20;;;-2.50;99.90;;;;;;5008393;28;20260;-81
2021/01/11 05:12:21;;;;;;;0.20;0.20;;;-2.60;99.90;;;;;;5006241;28;20181;-81
2021/01/11 05:14:46;;;;;;;0.37;0.37;;;-2.50;99.90;;;;;;5009898;28;20286;-82
2021/01/11 05:17:15;;;;;;;0.27;0.27;;;-2.60;99.90;;;;;;5008902;28;20205;-81
2021/01/11 05:19:41;;;;;;;0.30;0.30;;;-2.60;99.90;;;;;;5007647;28;20213;-81
2021/01/11 05:22:09;;;;;;;0.20;0.20;;;-2.60;99.90;;;;;;5004660;28;20199;-80
2021/01/11 05:24:43;;;;;;;0.30;0.30;;;-2.60;99.90;;;;;;5007202;28;21645;-79
2021/01/11 05:27:10;;;;;;;0.10;0.10;;;-2.60;99.90;;;;;;5000123;28;20181;-81
2021/01/11 05:29:38;;;;;;;0.10;0.10;;;-2.50;99.90;;;;;;5008281;28;20206;-82
2021/01/11 05:32:06;;;;;;;0.20;0.20;;;-2.40;99.90;;;;;;5011264;28;20263;-80
2021/01/11 05:34:45;;;;;;;0.60;0.60;;;-2.30;99.90;;;;;;5008652;28;20663;-81
2021/01/11 05:37:39;;;;;;;0.20;0.20;;;-2.30;99.90;;;;;;5008571;28;20193;-81
2021/01/11 05:40:14;;;;;;;0.20;0.20;;;-2.30;99.90;;;;;;5005688;28;20278;-80
2021/01/11 05:42:42;;;;;;;0.30;0.30;;;-2.30;99.90;;;;;;4998282;28;20202;-81
2021/01/11 05:45:10;;;;;;;0.23;0.23;;;-2.40;99.90;;;;;;5005046;28;20246;-83
2021/01/11 05:48:08;;;;;;;0.10;0.10;;;-2.40;99.90;;;;;;5022432;28;20559;-82
2021/01/11 05:50:44;;;;;;;0.10;0.10;;;-2.50;99.90;;;;;;4996701;28;20209;-84
2021/01/11 05:53:19;;;;;;;0.30;0.30;;;-2.50;99.90;;;;;;5007211;28;20605;-83
2021/01/11 05:55:46;;;;;;;0.40;0.40;;;-2.50;99.90;;;;;;5001392;28;20195;-80
2021/01/11 05:58:12;;;;;;;0.63;0.30;;;-2.50;99.90;;;;;;5009114;28;20183;-81
2021/01/11 06:00:39;;;;;;;0.50;0.27;;;-2.60;99.90;;;;;;5007576;28;20700;-81
2021/01/11 06:03:07;;;;;;;0.33;0.33;;;-2.60;99.90;;;;;;5010457;28;20192;-81
2021/01/11 06:05:33;;;;;;;0.10;0.10;;;-2.60;99.90;;;;;;5010327;28;20204;-81
2021/01/11 06:08:00;;;;;;;0.30;0.30;;;-2.60;99.90;;;;;;5009137;28;20674;-81
2021/01/11 06:10:27;;;;;;;0.63;0.43;;;-2.50;99.90;;;;;;5005598;28;20237;-82
2021/01/11 06:12:53;;;;;;;0.10;0.10;;;-2.50;99.90;;;;;;5010150;28;20192;-82
2021/01/11 06:15:22;;;;;;;0.20;0.20;;;-2.50;99.90;;;;;;5006787;28;20565;-81
2021/01/11 06:17:50;;;;;;;0.40;0.40;;;-2.50;99.90;;;;;;5006463;28;20684;-81
2021/01/11 06:20:19;;;;;;;0.40;0.30;;;-2.60;99.90;;;;;;5003192;28;20700;-78
2021/01/11 06:22:44;;;;;;;1.80;1.80;;;-2.70;99.90;;;;;;5006777;28;20188;-81
2021/01/11 06:25:31;;;;;;;0.10;0.10;;;-2.60;99.90;;;;;;5007589;28;20236;-81
2021/01/11 06:28:01;;;;;;;0.40;0.40;;;-2.50;99.90;;;;;;5010781;28;20234;-81
2021/01/11 06:30:33;;;;;;;1.03;0.50;;;-2.50;99.90;;;;;;5011436;28;20644;-80
2021/01/11 06:33:13;;;;;;;0.30;0.30;;;-2.50;99.90;;;;;;5012567;28;20181;-81
2021/01/11 06:35:47;;;;;;;0.10;0.10;;;-2.50;99.90;;;;;;5013679;28;20228;-84
2021/01/11 06:38:25;;;;;;;1.33;1.23;;;-2.60;99.90;;;;;;5013247;28;20684;-82
2021/01/11 06:41:03;;;;;;;0.37;0.37;;;-2.60;99.90;;;;;;5005667;28;20278;-82
2021/01/11 06:43:38;;;;;;;0.77;0.30;;;-2.60;99.90;;;;;;5014082;28;20195;-83
2021/01/11 06:46:03;;;;;;;0.10;0.10;;;-2.50;99.90;;;;;;5011924;28;20616;-82
2021/01/11 06:48:33;;;;;;;0.20;0.20;;;-2.40;99.90;;;;;;5010862;28;20187;-80
2021/01/11 06:51:10;;;;;;;0.17;0.17;;;-2.40;99.90;;;;;;5009322;28;20598;-81
2021/01/11 06:53:37;;;;;;;0.27;0.27;;;-2.60;99.90;;;;;;5008957;28;20203;-80
2021/01/11 06:56:12;;;;;;;3.03;2.83;;;-2.60;99.90;;;;;;5010508;28;20195;-81
2021/01/11 06:58:40;;;;;;;0.40;0.40;;;-2.60;99.90;;;;;;5011093;28;20198;-81
2021/01/11 07:01:11;;;;;;;0.10;0.10;;;-2.50;99.90;;;;;;5010899;28;20205;-81
2021/01/11 07:03:50;;;;;;;1.70;1.43;;;-2.40;99.90;;;;;;5011991;28;20206;-80
2021/01/11 07:06:35;;;;;;;2.43;0.97;;;-2.40;99.90;;;;;;5009878;28;20862;-80
2021/01/11 07:09:20;;;;;;;0.20;0.20;;;-2.40;99.90;;;;;;5009401;28;20567;-81
2021/01/11 07:11:50;;;;;;;0.27;0.27;;;-2.50;99.90;;;;;;5011620;28;20201;-80
2021/01/11 07:14:23;;;;;;;0.77;0.63;;;-2.40;99.90;;;;;;5010062;28;20209;-81
2021/01/11 07:16:52;;;;;;;1.43;0.83;;;-2.50;99.90;;;;;;5011753;28;20188;-81
2021/01/11 07:19:36;;;;;;;0.10;0.10;;;-2.50;99.90;;;;;;5007876;28;20217;-79
2021/01/11 07:22:09;;;;;;;0.10;0.10;;;-2.50;99.90;;;;;;5007433;28;20554;-82
2021/01/11 07:24:37;;;;;;;0.20;0.20;;;-2.50;99.90;;;;;;5009898;28;21895;-80
2021/01/11 07:27:03;;;;;;;0.17;0.17;;;-2.40;99.90;;;;;;5009649;28;20672;-80
2021/01/11 07:29:28;;;;;;;0.20;0.20;;;-2.50;99.90;;;;;;5008635;28;20248;-82
2021/01/11 07:31:54;;;;;;;0.20;0.20;;;-2.40;99.90;;;;;;5010278;28;20178;-80
2021/01/11 07:34:23;;;;;;;0.33;0.33;;;-2.40;99.90;;;;;;5004762;28;20306;-81
2021/01/11 07:36:53;;;;;;;0.37;0.37;;;-2.50;99.90;;;;;;5011666;28;20183;-81
2021/01/11 07:39:22;;;;;;;0.10;0.10;;;-2.40;99.90;;;;;;5014101;28;20215;-81
2021/01/11 07:41:53;;;;;;;0.10;0.10;;;-2.40;99.90;;;;;;5009689;28;20189;-81
2021/01/11 07:44:33;;;;;;;0.23;0.23;;;-2.50;99.90;;;;;;5007501;28;20257;-82
2021/01/11 07:47:00;;;;;;;0.73;0.50;;;-2.30;99.90;;;;;;5010400;28;20184;-81
2021/01/11 07:49:28;;;;;;;0.20;0.20;;;-2.10;99.90;;;;;;5008841;28;20223;-81
2021/01/11 07:52:03;;;;;;;0.30;0.30;;;-1.90;99.90;;;;;;5010726;28;20701;-81
2021/01/11 07:54:29;;;;;;;0.10;0.10;;;-1.70;99.90;;;;;;5010164;28;20200;-82
2021/01/11 07:56:56;;;;;;;2.23;0.90;;;-1.60;99.90;;;;;;5008610;28;20673;-81
2021/01/11 07:59:22;;;;;;;0.20;0.20;;;-1.50;99.90;;;;;;5011779;28;20298;-81
2021/01/11 08:01:49;;;;;;;0.43;0.43;;;-1.30;99.90;;;;;;5000823;28;20200;-78
2021/01/11 08:04:16;;;;;;;0.63;0.60;;;-1.20;99.90;;;;;;5010073;28;20195;-79
2021/01/11 08:06:56;;;;;;;2.23;1.10;;;-1.20;99.90;;;;;;5007749;28;20284;-81
2021/01/11 08:09:27;;;;;;;1.03;1.03;;;-1.20;99.90;;;;;;5027473;28;20214;-81
2021/01/11 08:12:17;;;;;;;0.30;0.30;;;-1.20;99.90;;;;;;5009097;28;20190;-82
2021/01/11 08:14:43;;;;;;;1.03;0.80;;;-1.20;99.90;;;;;;5003824;28;20191;-81
2021/01/11 08:17:12;;;;;;;0.60;0.60;;;-1.10;99.90;;;;;;5009579;28;20223;-82
2021/01/11 08:19:42;;;;;;;0.30;0.30;;;-1.00;99.90;;;;;;5010677;28;20207;-82
2021/01/11 08:22:10;;;;;;;1.23;0.40;;;-0.90;99.90;;;;;;5012325;28;20580;-79
2021/01/11 08:24:36;;;;;;;1.30;0.97;;;-0.80;99.90;;;;;;5018120;28;20302;-82
2021/01/11 08:27:20;;;;;;;0.57;0.57;;;-0.80;99.90;;;;;;5013101;28;20176;-82
2021/01/11 08:29:46;;;;;;;1.47;0.70;;;-0.90;99.90;;;;;;5012240;28;20271;-82
2021/01/11 08:32:16;;;;;;;0.10;0.10;;;-0.90;99.90;;;;;;5012757;28;20182;-81
2021/01/11 08:34:42;;;;;;;0.20;0.20;;;-0.80;99.90;;;;;;5012762;28;20211;-82
2021/01/11 08:37:41;;;;;;;1.27;0.60;;;-0.70;99.90;;;;;;5018774;28;20540;-81
2021/01/11 08:40:25;;;;;;;0.50;0.50;;;-0.60;99.90;;;;;;4978855;28;20230;-82
2021/01/11 08:42:50;;;;;;;0.53;0.50;;;-0.30;99.90;;;;;;5011753;28;20184;-81
2021/01/11 08:45:52;;;;;;;0.40;0.33;;;-0.10;99.90;;;;;;5015945;28;20362;-79
2021/01/11 08:48:25;;;;;;;0.67;0.40;;;-0.10;99.90;;;;;;4988584;28;20195;-81
2021/01/11 08:50:50;;;;;;;1.63;0.33;;;0.10;99.90;;;;;;5012707;28;20209;-82
2021/01/11 08:53:29;;;;;;;1.50;1.40;;;0.30;99.90;;;;;;5012411;28;20329;-81
2021/01/11 08:56:06;;;;;;;0.10;0.10;;;0.40;99.90;;;;;;5011151;28;20642;-82
2021/01/11 08:58:33;;;;;;;0.37;0.37;;;0.50;99.90;;;;;;5012195;28;20235;-81
2021/01/11 09:01:26;;;;;;;0.37;0.37;;;0.80;99.90;;;;;;5010450;28;20228;-81
2021/01/11 09:03:54;;;;;;;0.10;0.10;;;0.90;99.90;;;;;;5013277;28;20190;-79
2021/01/11 09:06:36;;;;;;;0.30;0.30;;;1.00;99.90;;;;;;5014167;28;20662;-78
2021/01/11 09:09:16;;;;;;;0.40;0.40;;;1.10;99.90;;;;;;5015449;28;20190;-78
2021/01/11 09:11:44;;;;;;;0.23;0.23;;;1.10;99.90;;;;;;5014207;28;20210;-80
2021/01/11 09:14:18;;;;;;;0.23;0.23;;;1.20;99.90;;;;;;5015137;28;20183;-78
2021/01/11 09:16:45;;;;;;;0.23;0.23;;;1.30;99.90;;;;;;5014383;28;20198;-80
2021/01/11 09:19:13;;;;;;;0.70;0.47;;;1.20;99.90;;;;;;5013500;28;20194;-79
2021/01/11 09:21:41;;;;;;;0.33;0.33;;;1.30;99.90;;;;;;5005349;28;20183;-79
2021/01/11 09:24:08;;;;;;;0.10;0.10;;;1.40;99.90;;;;;;5010725;28;20251;-82
2021/01/11 09:26:35;;;;;;;0.90;0.30;;;1.20;99.90;;;;;;5010751;28;20199;-82
2021/01/11 09:29:01;;;;;;;0.60;0.60;;;1.20;99.90;;;;;;5010154;28;20187;-82
2021/01/11 09:31:27;;;;;;;0.83;0.77;;;1.20;99.90;;;;;;5009601;28;20222;-83
2021/01/11 09:33:53;;;;;;;1.30;0.30;;;1.10;99.90;;;;;;5005594;28;20230;-80
2021/01/11 09:36:22;;;;;;;1.60;1.50;;;1.10;99.90;;;;;;5011217;28;20194;-79
2021/01/11 09:38:48;;;;;;;0.70;0.53;;;1.20;99.90;;;;;;5007046;28;20179;-80
2021/01/11 09:41:15;;;;;;;0.97;0.63;;;1.30;99.90;;;;;;5005497;28;20216;-80
2021/01/11 09:43:41;;;;;;;0.37;0.33;;;1.50;99.90;;;;;;5012055;28;20186;-80
2021/01/11 09:46:08;;;;;;;0.30;0.30;;;1.50;99.90;;;;;;5010172;28;20749;-81
2021/01/11 09:48:33;;;;;;;0.50;0.33;;;1.60;99.90;;;;;;5008544;28;20185;-81
2021/01/11 09:50:59;;;;;;;0.30;0.30;;;1.50;99.90;;;;;;5009451;28;20202;-81
2021/01/11 09:53:25;;;;;;;1.47;0.93;;;1.60;99.90;;;;;;5007696;28;20617;-81
2021/01/11 09:55:50;;;;;;;0.13;0.13;;;1.80;99.90;;;;;;5012587;28;20688;-81
2021/01/11 09:58:16;;;;;;;0.10;0.10;;;2.10;99.90;;;;;;5013080;28;20183;-82
2021/01/11 10:00:42;;;;;;;0.70;0.67;;;2.40;99.90;;;;;;5011572;28;20206;-82
2021/01/11 10:03:08;;;;;;;0.07;0.07;;;2.40;99.90;;;;;;5011034;28;20192;-82
2021/01/11 10:05:34;;;;;;;0.53;0.53;;;2.50;99.90;;;;;;5013284;28;20210;-79
2021/01/11 10:08:00;;;;;;;0.30;0.30;;;2.60;99.90;;;;;;5012105;28;20245;-82
2021/01/11 10:10:26;;;;;;;0.80;0.37;;;2.80;99.90;;;;;;5008333;28;20210;-81
2021/01/11 10:12:52;;;;;;;0.40;0.40;;;2.90;99.90;;;;;;5009321;28;20183;-83
2021/01/11 10:15:17;;;;;;;0.30;0.30;;;3.00;99.90;;;;;;5021354;28;20681;-81
2021/01/11 10:17:43;;;;;;;0.70;0.70;;;3.00;99.90;;;;;;5010699;28;20175;-81
2021/01/11 10:20:10;;;;;;;0.30;0.23;;;3.10;99.90;;;;;;5010259;28;20211;-81
2021/01/11 10:22:35;;;;;;;0.53;0.23;;;3.30;99.90;;;;;;5009299;28;20179;-81
2021/01/11 10:25:01;;;;;;;1.13;1.03;;;3.30;99.90;;;;;;5007890;28;20207;-80
2021/01/11 10:27:27;;;;;;;0.43;0.43;;;3.30;99.90;;;;;;5012517;28;20194;-79
2021/01/11 10:29:53;;;;;;;0.17;0.17;;;3.30;99.90;;;;;;5007230;28;20752;-81
2021/01/11 10:32:19;;;;;;;0.27;0.27;;;3.20;99.90;;;;;;5011002;28;20172;-81
2021/01/11 10:34:44;;;;;;;1.33;0.60;;;3.30;99.90;;;;;;5013587;28;20199;-81
2021/01/11 10:37:10;;;;;;;1.83;1.30;;;3.20;99.90;;;;;;5012283;28;20210;-83
2021/01/11 10:39:36;;;;;;;0.27;0.27;;;3.20;99.90;;;;;;5016483;28;20331;-80
2021/01/11 10:42:01;;;;;;;0.30;0.30;;;3.20;99.90;;;;;;5010155;28;20199;-79
2021/01/11 10:44:27;;;;;;;0.10;0.10;;;3.10;99.90;;;;;;5012785;28;20218;-80
2021/01/11 10:46:54;;;;;;;0.13;0.13;;;3.10;99.90;;;;;;5013626;28;20274;-82
2021/01/11 10:49:21;;;;;;;3.20;0.90;;;3.20;99.90;;;;;;5012245;28;20211;-81
2021/01/11 10:51:48;;;;;;;0.87;0.33;;;3.20;99.90;;;;;;5011966;28;20187;-83
2021/01/11 10:54:14;;;;;;;0.23;0.23;;;3.20;99.90;;;;;;5014392;28;20179;-80
2021/01/11 10:56:39;;;;;;;1.27;0.30;;;3.30;99.90;;;;;;5010577;28;20732;-78
2021/01/11 10:59:05;;;;;;;0.47;0.40;;;3.40;99.90;;;;;;5013415;28;20226;-80
2021/01/11 11:01:31;;;;;;;0.37;0.37;;;3.50;99.90;;;;;;5012020;28;20189;-81
2021/01/11 11:03:56;;;;;;;0.37;0.27;;;3.40;99.90;;;;;;5013134;28;20667;-81
2021/01/11 11:06:25;;;;;;;1.57;1.20;;;3.30;99.90;;;;;;5010125;28;20219;-80
2021/01/11 11:08:51;;;;;;;0.60;0.57;;;3.30;99.90;;;;;;5032347;22;20226;-84
2021/01/11 11:11:16;;;;;;;0.30;0.30;;;3.30;99.90;;;;;;5021783;28;20283;-82
2021/01/11 11:13:42;;;;;;;1.50;1.03;;;3.30;99.90;;;;;;5016865;28;20192;-81
2021/01/11 11:16:10;;;;;;;0.83;0.83;;;3.40;99.90;;;;;;5017769;28;20272;-82
2021/01/11 11:18:36;;;;;;;0.20;0.20;;;3.40;99.90;;;;;;5012673;28;20589;-80
2021/01/11 11:21:10;;;;;;;5.70;0.80;;;3.50;99.90;;;;;;5017482;28;20187;-80
2021/01/11 11:23:36;;;;;;;0.40;0.40;;;3.30;99.90;;;;;;5015363;28;20184;-81
2021/01/11 11:26:02;;;;;;;1.97;1.87;;;3.10;99.90;;;;;;5020851;28;20287;-82
2021/01/11 11:28:29;;;;;;;1.77;0.87;;;3.10;99.90;;;;;;5019976;28;20679;-82
2021/01/11 11:30:55;;;;;;;0.63;0.63;;;3.20;99.90;;;;;;5019059;28;20255;-82
2021/01/11 11:33:21;;;;;;;1.23;0.97;;;3.20;99.90;;;;;;5021128;28;20212;-82
2021/01/11 11:35:47;;;;;;;2.50;2.30;;;3.30;99.90;;;;;;5020260;28;20188;-81
2021/01/11 11:38:12;;;;;;;0.60;0.43;;;3.50;99.90;;;;;;5018284;28;20191;-81
2021/01/11 11:40:38;;;;;;;0.30;0.30;;;3.60;99.90;;;;;;5009359;28;20227;-82
2021/01/11 11:43:04;;;;;;;3.00;0.70;;;3.60;99.90;;;;;;5019992;28;20195;-83
2021/01/11 11:45:31;;;;;;;0.70;0.70;;;3.60;99.90;;;;;;5016857;28;20207;-80
2021/01/11 11:47:57;;;;;;;0.37;0.37;;;3.80;99.90;;;;;;5017029;28;20229;-81
2021/01/11 11:50:23;;;;;;;0.40;0.40;;;3.90;99.90;;;;;;5020214;28;20203;-81
2021/01/11 11:52:49;;;;;;;1.77;0.93;;;4.10;99.90;;;;;;5018491;28;20253;-82
2021/01/11 11:55:16;;;;;;;0.70;0.70;;;4.10;99.90;;;;;;5017921;28;20191;-82
2021/01/11 11:57:44;;;;;;;0.97;0.63;;;4.00;99.90;;;;;;5017198;28;20188;-81
2021/01/11 12:00:14;;;;;;;0.33;0.33;;;4.10;99.90;;;;;;5019231;28;20253;-83
2021/01/11 12:02:40;;;;;;;0.90;0.63;;;4.10;99.90;;;;;;5015177;28;20188;-82
2021/01/11 12:05:10;;;;;;;0.40;0.40;;;4.30;99.90;;;;;;5020761;28;20746;-84
2021/01/11 12:07:36;;;;;;;0.40;0.40;;;4.40;99.90;;;;;;5015095;28;20187;-82
2021/01/11 12:10:11;;;;;;;0.33;0.33;;;4.40;99.90;;;;;;5013871;28;20215;-82
2021/01/11 12:12:37;;;;;;;0.37;0.37;;;4.20;99.90;;;;;;5016292;28;20189;-82
2021/01/11 12:15:05;;;;;;;0.83;0.80;;;4.30;99.90;;;;;;5020280;28;20398;-82
2021/01/11 12:17:31;;;;;;;0.43;0.43;;;4.40;99.90;;;;;;5030282;28;20207;-82
2021/01/11 12:19:57;;;;;;;0.43;0.43;;;4.60;99.90;;;;;;5014372;28;20199;-80
2021/01/11 12:22:23;;;;;;;0.50;0.50;;;4.60;99.90;;;;;;5017861;28;20207;-82
2021/01/11 12:24:48;;;;;;;2.13;0.93;;;4.50;99.90;;;;;;5011590;28;20210;-82
2021/01/11 12:27:14;;;;;;;1.80;1.03;;;4.30;99.90;;;;;;5020339;28;20188;-82
2021/01/11 12:29:40;;;;;;;4.00;0.57;;;4.40;99.90;;;;;;5015869;28;20682;-82
2021/01/11 12:32:07;;;;;;;0.47;0.47;;;4.40;99.90;;;;;;5014536;28;20195;-82
2021/01/11 12:34:39;;;;;;;1.20;1.10;;;4.30;99.90;;;;;;5017452;28;20642;-82
2021/01/11 12:37:05;;;;;;;0.40;0.40;;;4.10;99.90;;;;;;5018623;28;20666;-83
2021/01/11 12:39:30;;;;;;;0.53;0.43;;;4.10;99.90;;;;;;5015659;28;20207;-80
2021/01/11 12:41:56;;;;;;;0.40;0.40;;;4.00;99.90;;;;;;5035276;28;20189;-83
2021/01/11 12:44:21;;;;;;;0.57;0.57;;;3.90;99.90;;;;;;5014865;28;20184;-80
2021/01/11 12:46:47;;;;;;;0.97;0.90;;;3.80;99.90;;;;;;5013156;28;20195;-81
2021/01/11 12:49:13;;;;;;;2.03;1.47;;;3.80;99.90;;;;;;5018723;28;20246;-82
2021/01/11 12:51:38;;;;;;;1.73;1.63;;;3.70;99.90;;;;;;5020273;28;20183;-82
2021/01/11 12:54:04;;;;;;;1.17;0.97;;;3.70;99.90;;;;;;5036749;28;20190;-82
2021/01/11 12:56:29;;;;;;;2.20;0.40;;;3.60;99.90;;;;;;5020804;28;20664;-82
2021/01/11 12:58:57;;;;;;;3.07;0.80;;;3.60;99.90;;;;;;5022356;28;20213;-81